Altamont, UT

9:29 PM MDT on September 21, 2014 (GMT -0600)
Vernal | Change Station
CLOSE
Current Station
Airport
Location: Vernal,
Elevation: 5276 ft
Nearby Weather Stations

Elev 5276 ft 40.44 °N, 109.51 °W | Updated 36 minutes ago

Partly Cloudy
Partly Cloudy
56 °F
Feels Like 56 °F
N
6
Wind Variable Wind from West

Today
High -- | Low -- °F
--% Chance of Precip.
Yesterday
High -- | Low -- °F
Precip. -- in
7:08 AM 7:20 PM
Waning Crescent, 4% visible
Pressure 30.13 in
Visibility 10.0 miles
Clouds Clear
Dew Point 54 °F
Humidity 93%
Rainfall 0.36 in
Snow Depth 0 in , 0 in , 1 in
UV 0 out of 12
Pollen 4.30 out of 12
Air Quality Not available.
Flu Activity Not available.
METAR KVEL 220253Z AUTO 27005KT 10SM CLR 13/12 A3024 RMK AO2 SLP201 T01330122 55000

More Conditions Fewer Conditions

Pressure 30.13 in
Visibility 10.0 miles
Clouds Clear
Dew Point 54 °F
Humidity 93%
Rainfall 0.36 in
Snow Depth 0 in , 0 in , 1 in
UV 0 out of 12
Pollen 4.30 out of 12
Air Quality Not available.
Flu Activity Not available.
METAR KVEL 220253Z AUTO 27005KT 10SM CLR 13/12 A3024 RMK AO2 SLP201 T01330122 55000

More Conditions Fewer Conditions

10-Day Weather Forecast

Almanac

Astronomy

Sep. 21, 2014 Rise Set
Actual Time 7:08 AM MDT 7:20 PM MDT
Civil Twilight 6:41 AM MDT 7:47 PM MDT
Nautical Twilight 6:09 AM MDT 8:19 PM MDT
Astronomical Twilight 5:36 AM MDT 8:51 PM MDT
Moon 4:45 AM MDT (9/21) 5:58 PM MDT (9/21)
Length of Visible Light 13h 06m
Length of Day
12h 12m
Tomorrow will be 2m 39s shorter.
Waning Crescent, 4% of the Moon is Illuminated
Today
Waning Crescent
Sep 24
New
Oct 1
First Quarter
Oct 8
Full
Oct 15
Last Quarter

Today's Extremes

State Highs State Lows

Community

WunderPhotos

Upload Photos

1,755,382 photos uploaded!

WunderBlogs® & News

Nearby

Snow Depth

Station Depth Elevation
Rocky Basin-Settlement 0 in 8900 ft
King's Cabin 0 in 8730 ft
Lookout Peak 0 in 8200 ft
Mosby Mountain 1 in 9500 ft
Mammoth-Cottonwood 0 in 8800 ft

Earthquake Activity

City Distance Mag. Time & Date
No recent earthquake activity has been reported nearby.
Minimum magnitude displayed is 2.5.

Coastal Water Temperatures

Place Temperature
No Stations Reporting

Nearby Weather Stations